createdAt,value
2023-05-05T00:00:00.702Z,100.00
2023-05-05T00:02:30.962Z,100.00
2023-05-05T00:05:00.796Z,100.00
2023-05-05T00:07:30.637Z,100.00
2023-05-05T00:10:00.316Z,100.00
2023-05-05T00:12:30.477Z,100.00
2023-05-05T00:15:00.483Z,100.00
2023-05-05T00:17:30.608Z,100.00
2023-05-05T00:20:00.376Z,100.00
2023-05-05T00:22:30.466Z,100.00
2023-05-05T00:25:00.931Z,100.00
2023-05-05T00:27:30.430Z,100.00
2023-05-05T00:30:00.128Z,100.00
2023-05-05T00:32:29.969Z,100.00
2023-05-05T00:35:00.543Z,100.00
2023-05-05T00:37:33.097Z,100.00
2023-05-05T00:40:02.627Z,100.00
2023-05-05T00:42:52.544Z,100.00
2023-05-05T00:45:22.759Z,100.00
2023-05-05T00:48:01.954Z,100.00
2023-05-05T00:50:32.384Z,100.00
2023-05-05T00:53:06.782Z,100.00
2023-05-05T00:55:37.372Z,100.00
2023-05-05T00:58:08.286Z,100.00
2023-05-05T01:00:38.429Z,100.00
2023-05-05T01:03:08.730Z,100.00
2023-05-05T01:07:01.206Z,100.00
2023-05-05T01:10:19.662Z,100.00
2023-05-05T01:13:40.705Z,100.00
2023-05-05T01:17:04.569Z,100.00
2023-05-05T01:21:09.102Z,100.00
2023-05-05T01:24:18.602Z,100.00
2023-05-05T01:27:27.889Z,100.00
2023-05-05T01:30:44.975Z,100.00
2023-05-05T01:33:26.498Z,100.00
2023-05-05T01:36:10.619Z,100.00
2023-05-05T01:38:47.416Z,100.00
2023-05-05T01:41:22.327Z,100.00
2023-05-05T01:43:58.671Z,100.00
2023-05-05T01:46:31.209Z,100.00
2023-05-05T01:49:02.252Z,100.00
2023-05-05T01:51:36.745Z,100.00
2023-05-05T01:54:10.557Z,100.00
2023-05-05T01:56:44.697Z,100.00
2023-05-05T01:59:17.974Z,100.00
2023-05-05T02:01:52.291Z,100.00
2023-05-05T02:04:26.944Z,100.00
2023-05-05T02:07:01.013Z,100.00
2023-05-05T02:09:31.691Z,100.00
2023-05-05T02:12:04.051Z,100.00
2023-05-05T02:14:37.157Z,100.00
2023-05-05T02:17:09.877Z,100.00
2023-05-05T02:19:47.855Z,100.00
2023-05-05T02:22:18.225Z,100.00
2023-05-05T02:24:48.340Z,100.00
2023-05-05T02:27:24.496Z,100.00
2023-05-05T02:30:08.694Z,100.00
2023-05-05T02:32:48.104Z,100.00
2023-05-05T02:35:28.848Z,100.00
2023-05-05T02:38:06.339Z,100.00
2023-05-05T02:40:43.735Z,100.00
2023-05-05T02:43:23.328Z,100.00
2023-05-05T02:45:53.748Z,100.00
2023-05-05T02:48:24.401Z,100.00
2023-05-05T02:50:54.518Z,100.00
2023-05-05T02:53:29.070Z,100.00
2023-05-05T02:56:26.769Z,100.00
2023-05-05T02:59:16.434Z,100.00
2023-05-05T03:02:23.253Z,100.00
2023-05-05T03:05:13.516Z,100.00
2023-05-05T03:08:10.996Z,100.00
2023-05-05T03:11:04.432Z,100.00
2023-05-05T03:13:37.966Z,100.00
2023-05-05T03:16:11.816Z,100.00
2023-05-05T03:18:47.169Z,100.00
2023-05-05T03:21:19.110Z,100.00
2023-05-05T03:23:49.665Z,100.00
2023-05-05T03:26:19.880Z,100.00
2023-05-05T03:28:49.975Z,100.00
2023-05-05T03:31:20.207Z,100.00
2023-05-05T03:33:50.374Z,100.00
2023-05-05T03:36:20.458Z,100.00
2023-05-05T03:38:50.773Z,100.00
2023-05-05T03:41:23.828Z,100.00
2023-05-05T03:43:54.639Z,100.00
2023-05-05T03:46:24.725Z,100.00
2023-05-05T03:48:57.286Z,100.00
2023-05-05T03:51:28.255Z,100.00
2023-05-05T03:53:58.467Z,100.00
2023-05-05T03:56:28.614Z,100.00
2023-05-05T03:58:58.817Z,100.00
2023-05-05T04:01:30.139Z,100.00
2023-05-05T04:04:00.264Z,100.00
2023-05-05T04:06:31.993Z,100.00
2023-05-05T04:09:02.247Z,100.00
2023-05-05T04:11:32.480Z,100.00
2023-05-05T04:14:02.701Z,100.00
2023-05-05T04:16:33.031Z,100.00
2023-05-05T04:19:04.126Z,100.00
2023-05-05T04:21:35.428Z,100.00
2023-05-05T04:24:06.343Z,100.00
2023-05-05T04:26:36.616Z,100.00
2023-05-05T04:29:06.954Z,100.00
2023-05-05T04:31:37.108Z,100.00
2023-05-05T04:34:07.231Z,100.00
2023-05-05T04:36:37.824Z,100.00
2023-05-05T04:39:08.826Z,100.00
2023-05-05T04:41:38.918Z,100.00
2023-05-05T04:44:07.384Z,100.00
2023-05-05T04:46:35.815Z,100.00
2023-05-05T04:49:05.928Z,100.00
2023-05-05T04:51:35.660Z,100.00
2023-05-05T04:54:04.237Z,100.00
2023-05-05T04:56:32.591Z,100.00
2023-05-05T04:59:00.893Z,100.00
2023-05-05T05:01:29.361Z,100.00
2023-05-05T05:03:57.934Z,100.00
2023-05-05T05:06:26.148Z,100.00
2023-05-05T05:08:54.533Z,100.00
2023-05-05T05:11:23.118Z,100.00
2023-05-05T05:13:51.359Z,100.00
2023-05-05T05:16:19.908Z,100.00
2023-05-05T05:18:48.302Z,100.00
2023-05-05T05:21:16.822Z,100.00
2023-05-05T05:23:45.042Z,100.00
2023-05-05T05:26:13.554Z,100.00
2023-05-05T05:28:41.915Z,100.00
2023-05-05T05:31:10.243Z,98.82
2023-05-05T05:33:38.658Z,97.99
2023-05-05T05:36:07.245Z,96.96
2023-05-05T05:38:35.621Z,94.02
2023-05-05T05:41:07.862Z,92.88
2023-05-05T05:43:37.914Z,91.29
2023-05-05T05:46:09.186Z,91.84
2023-05-05T05:48:39.587Z,92.67
2023-05-05T05:51:09.556Z,91.85
2023-05-05T05:53:39.286Z,90.08
2023-05-05T05:56:10.021Z,93.57
2023-05-05T05:58:40.728Z,88.85
2023-05-05T06:01:11.050Z,86.12
2023-05-05T06:03:41.126Z,84.33
2023-05-05T06:06:11.178Z,83.21
2023-05-05T06:08:40.860Z,82.16
2023-05-05T06:11:10.833Z,78.51
2023-05-05T06:13:40.525Z,77.66
2023-05-05T06:16:10.476Z,78.33
2023-05-05T06:18:40.261Z,77.50
2023-05-05T06:21:10.029Z,76.22
2023-05-05T06:23:40.023Z,75.26
2023-05-05T06:26:09.670Z,77.46
2023-05-05T06:28:39.583Z,73.46
2023-05-05T06:31:09.779Z,70.99
2023-05-05T06:33:39.511Z,66.75
2023-05-05T06:36:09.551Z,67.76
2023-05-05T06:38:39.663Z,70.29
2023-05-05T06:41:09.444Z,70.86
2023-05-05T06:43:39.842Z,70.23
2023-05-05T06:46:09.633Z,71.75
2023-05-05T06:48:39.646Z,73.25
2023-05-05T06:51:10.424Z,70.97
2023-05-05T06:53:40.214Z,71.85
2023-05-05T06:56:10.037Z,69.96
2023-05-05T06:58:39.781Z,72.27
2023-05-05T07:01:09.881Z,70.61
2023-05-05T07:03:40.025Z,68.74
2023-05-05T07:06:09.888Z,69.93
2023-05-05T07:08:38.220Z,70.25
2023-05-05T07:11:07.239Z,71.28
2023-05-05T07:13:35.092Z,72.39
2023-05-05T07:16:03.699Z,69.22
2023-05-05T07:18:31.902Z,63.68
2023-05-05T07:21:01.480Z,60.52
2023-05-05T07:23:28.720Z,60.50
2023-05-05T07:25:57.390Z,61.61
2023-05-05T07:28:25.622Z,63.63
2023-05-05T07:30:54.255Z,60.06
2023-05-05T07:33:22.751Z,55.61
2023-05-05T07:35:50.880Z,56.06
2023-05-05T07:38:19.310Z,57.16
2023-05-05T07:40:47.680Z,60.58
2023-05-05T07:43:16.166Z,58.70
2023-05-05T07:45:44.587Z,55.84
2023-05-05T07:48:12.958Z,55.87
2023-05-05T07:50:41.378Z,52.00
2023-05-05T07:53:14.226Z,54.47
2023-05-05T07:55:45.260Z,50.62
2023-05-05T07:58:15.005Z,51.08
2023-05-05T08:00:44.796Z,51.75
2023-05-05T08:03:14.694Z,50.85
2023-05-05T08:05:44.643Z,49.66
2023-05-05T08:08:14.506Z,51.58
2023-05-05T08:10:44.241Z,50.05
2023-05-05T08:13:14.053Z,52.64
2023-05-05T08:15:45.290Z,50.44
2023-05-05T08:18:15.606Z,49.77
2023-05-05T08:20:45.621Z,51.64
2023-05-05T08:23:15.615Z,51.51
2023-05-05T08:25:45.653Z,47.53
2023-05-05T08:28:15.434Z,47.76
2023-05-05T08:30:45.418Z,48.21
2023-05-05T08:33:15.762Z,48.95
2023-05-05T08:35:45.152Z,49.00
2023-05-05T08:38:15.448Z,48.14
2023-05-05T08:40:45.819Z,48.40
2023-05-05T08:43:16.114Z,47.66
2023-05-05T08:45:47.218Z,48.09
2023-05-05T08:48:23.150Z,47.10
2023-05-05T08:51:01.930Z,48.06
2023-05-05T08:53:58.954Z,47.44
2023-05-05T08:56:34.518Z,46.11
2023-05-05T08:59:05.351Z,45.81
2023-05-05T09:01:36.877Z,45.44
2023-05-05T09:04:09.836Z,45.09
2023-05-05T09:06:40.619Z,48.27
2023-05-05T09:09:12.120Z,45.79
2023-05-05T09:11:45.171Z,46.68
2023-05-05T09:14:15.303Z,47.45
2023-05-05T09:16:45.755Z,47.83
2023-05-05T09:19:15.855Z,46.20
2023-05-05T09:21:49.827Z,43.02
2023-05-05T09:24:20.416Z,44.37
2023-05-05T09:26:50.749Z,44.24
2023-05-05T09:29:22.519Z,46.11
2023-05-05T09:32:08.887Z,47.41
2023-05-05T09:34:38.246Z,47.75
2023-05-05T09:37:07.883Z,45.30
2023-05-05T09:39:36.338Z,44.15
2023-05-05T09:42:05.499Z,47.33
2023-05-05T09:44:40.208Z,43.88
2023-05-05T09:47:21.946Z,43.91
2023-05-05T09:49:59.286Z,43.17
2023-05-05T09:52:30.631Z,43.15
2023-05-05T09:55:00.558Z,43.06
2023-05-05T09:57:34.335Z,43.62
2023-05-05T10:00:06.558Z,46.18
2023-05-05T10:02:39.606Z,43.75
2023-05-05T10:05:18.009Z,42.22
2023-05-05T10:07:48.360Z,44.96
2023-05-05T10:10:19.356Z,45.48
2023-05-05T10:12:51.392Z,42.38
2023-05-05T10:15:23.060Z,42.75
2023-05-05T10:18:07.003Z,43.62
2023-05-05T10:20:42.119Z,42.88
2023-05-05T10:23:20.655Z,46.70
2023-05-05T10:26:04.992Z,47.08
2023-05-05T10:28:51.141Z,45.08
2023-05-05T10:31:49.276Z,44.55
2023-05-05T10:34:51.527Z,45.23
2023-05-05T10:37:23.288Z,44.98
2023-05-05T10:39:57.933Z,46.36
2023-05-05T10:42:28.263Z,42.44
2023-05-05T10:44:58.367Z,42.27
2023-05-05T10:47:29.507Z,43.20
2023-05-05T10:50:29.691Z,42.02
2023-05-05T10:53:24.240Z,40.40
2023-05-05T10:56:22.123Z,43.35
2023-05-05T10:58:59.617Z,40.86
2023-05-05T11:01:36.560Z,40.64
2023-05-05T11:04:23.299Z,40.68
2023-05-05T11:07:11.072Z,40.08
2023-05-05T11:10:03.661Z,41.35
2023-05-05T11:12:59.399Z,42.87
2023-05-05T11:15:29.665Z,42.67
2023-05-05T11:18:07.310Z,42.34
2023-05-05T11:20:41.003Z,42.26
2023-05-05T11:25:47.305Z,41.63
2023-05-05T11:28:31.231Z,41.94
2023-05-05T11:31:01.378Z,41.72
2023-05-05T11:33:38.760Z,43.48
2023-05-05T11:36:15.857Z,41.21
2023-05-05T11:40:03.249Z,40.54
2023-05-05T11:42:34.043Z,42.19
2023-05-05T11:45:23.561Z,41.53
2023-05-05T11:48:28.651Z,40.46
2023-05-05T11:51:02.466Z,43.32
2023-05-05T11:53:32.457Z,40.41
2023-05-05T11:56:11.195Z,40.43
2023-05-05T11:58:41.760Z,41.51
2023-05-05T12:01:13.445Z,39.62
2023-05-05T12:03:45.965Z,40.46
2023-05-05T12:06:16.155Z,40.38
2023-05-05T12:08:45.913Z,38.93
2023-05-05T12:11:16.200Z,39.05
2023-05-05T12:13:46.539Z,39.24
2023-05-05T12:16:16.862Z,39.24
2023-05-05T12:18:47.045Z,38.71
2023-05-05T12:21:19.988Z,40.28
2023-05-05T12:23:50.463Z,39.97
2023-05-05T12:26:32.095Z,38.73
2023-05-05T12:29:01.745Z,36.91
2023-05-05T12:31:42.378Z,40.44
2023-05-05T12:34:13.405Z,39.59
2023-05-05T12:36:43.141Z,41.91
2023-05-05T12:39:13.617Z,38.54
2023-05-05T12:41:43.718Z,38.75
2023-05-05T12:44:13.883Z,36.21
2023-05-05T12:46:49.471Z,36.67
2023-05-05T12:49:19.585Z,35.77
2023-05-05T12:51:57.359Z,36.12
2023-05-05T12:54:25.382Z,37.45
2023-05-05T12:57:00.035Z,37.03
2023-05-05T12:59:30.926Z,38.07
2023-05-05T13:02:01.842Z,37.81
2023-05-05T13:04:32.796Z,36.90
2023-05-05T13:07:16.497Z,38.66
2023-05-05T13:09:47.357Z,36.33
2023-05-05T13:12:22.138Z,38.38
2023-05-05T13:14:53.848Z,37.35
2023-05-05T13:17:23.925Z,33.84
2023-05-05T13:19:54.271Z,36.49
2023-05-05T13:22:24.439Z,35.33
2023-05-05T13:24:54.653Z,35.38
2023-05-05T13:27:23.090Z,35.93
2023-05-05T13:29:53.133Z,36.34
2023-05-05T13:32:23.455Z,39.15
2023-05-05T13:34:53.271Z,39.50
2023-05-05T13:37:23.150Z,37.13
2023-05-05T13:39:53.130Z,35.79
2023-05-05T13:42:22.856Z,38.59
2023-05-05T13:44:52.681Z,35.12
2023-05-05T13:47:22.506Z,35.77
2023-05-05T13:49:52.724Z,35.22
2023-05-05T13:52:22.436Z,37.94
2023-05-05T13:54:52.209Z,36.82
2023-05-05T13:57:22.192Z,35.38
2023-05-05T13:59:52.145Z,36.08
2023-05-05T14:02:21.581Z,35.69
2023-05-05T14:04:51.235Z,36.44
2023-05-05T14:07:21.582Z,35.69
2023-05-05T14:09:51.650Z,35.04
2023-05-05T14:12:21.558Z,35.40
2023-05-05T14:14:51.282Z,36.25
2023-05-05T14:17:21.014Z,36.73
2023-05-05T14:19:51.187Z,36.36
2023-05-05T14:22:21.434Z,35.98
2023-05-05T14:24:51.083Z,35.67
2023-05-05T14:27:20.922Z,36.37
2023-05-05T14:29:50.633Z,36.37
2023-05-05T14:32:20.345Z,35.92
2023-05-05T14:34:50.584Z,36.04
2023-05-05T14:37:21.038Z,36.54
2023-05-05T14:39:50.458Z,37.23
2023-05-05T14:42:20.252Z,37.46
2023-05-05T14:44:50.032Z,36.49
2023-05-05T14:47:20.008Z,36.06
2023-05-05T14:49:49.803Z,36.24
2023-05-05T14:52:19.567Z,36.78
2023-05-05T14:54:49.230Z,37.07
2023-05-05T14:57:19.083Z,38.63
2023-05-05T14:59:51.963Z,37.41
2023-05-05T15:02:21.865Z,35.71
2023-05-05T15:04:53.111Z,37.61
2023-05-05T15:07:28.430Z,37.16
2023-05-05T15:09:58.570Z,37.31
2023-05-05T15:12:28.358Z,38.18
2023-05-05T15:14:58.170Z,38.69
2023-05-05T15:17:28.744Z,37.37
2023-05-05T15:19:58.159Z,38.79
2023-05-05T15:22:27.884Z,37.47
2023-05-05T15:24:57.586Z,38.93
2023-05-05T15:27:27.699Z,37.55
2023-05-05T15:29:57.869Z,36.82
2023-05-05T15:32:28.405Z,36.88
2023-05-05T15:34:58.631Z,36.71
2023-05-05T15:37:29.093Z,36.01
2023-05-05T15:39:59.276Z,36.66
2023-05-05T15:42:31.813Z,37.21
2023-05-05T15:45:01.704Z,39.35
2023-05-05T15:47:31.250Z,39.72
2023-05-05T15:50:01.086Z,39.28
2023-05-05T15:52:31.320Z,38.54
2023-05-05T15:55:01.961Z,37.35
2023-05-05T15:57:33.357Z,39.25
2023-05-05T16:00:02.288Z,39.20
2023-05-05T16:02:32.393Z,39.82
2023-05-05T16:05:02.527Z,40.68
2023-05-05T16:07:32.275Z,41.20
2023-05-05T16:10:02.790Z,42.00
2023-05-05T16:12:32.302Z,42.19
2023-05-05T16:15:02.222Z,42.84
2023-05-05T16:17:32.055Z,43.31
2023-05-05T16:20:01.969Z,43.61
2023-05-05T16:22:31.987Z,42.90
2023-05-05T16:25:00.440Z,43.41
2023-05-05T16:27:28.990Z,44.44
2023-05-05T16:29:59.551Z,43.96
2023-05-05T16:32:28.709Z,44.54
2023-05-05T16:34:57.246Z,43.87
2023-05-05T16:37:25.574Z,44.45
2023-05-05T16:39:53.888Z,45.55
2023-05-05T16:42:22.825Z,46.44
2023-05-05T16:44:50.760Z,45.18
2023-05-05T16:47:19.182Z,47.06
2023-05-05T16:49:47.534Z,46.63
2023-05-05T16:52:16.081Z,46.70
2023-05-05T16:54:44.629Z,47.40
2023-05-05T16:57:13.788Z,48.78
2023-05-05T16:59:41.916Z,47.42
2023-05-05T17:02:09.848Z,47.55
2023-05-05T17:04:38.078Z,48.24
2023-05-05T17:07:06.572Z,48.90
2023-05-05T17:09:34.994Z,48.43
2023-05-05T17:12:05.573Z,48.34
2023-05-05T17:14:36.048Z,48.04
2023-05-05T17:17:06.228Z,49.22
2023-05-05T17:19:35.975Z,49.16
2023-05-05T17:22:05.731Z,49.34
2023-05-05T17:24:35.760Z,49.70
2023-05-05T17:27:05.267Z,49.57
2023-05-05T17:29:40.660Z,50.14
2023-05-05T17:32:10.099Z,50.13
2023-05-05T17:34:38.623Z,50.86
2023-05-05T17:37:07.043Z,50.58
2023-05-05T17:39:35.672Z,51.25
2023-05-05T17:42:04.134Z,51.63
2023-05-05T17:44:32.836Z,51.58
2023-05-05T17:47:02.980Z,53.00
2023-05-05T17:49:32.682Z,53.18
2023-05-05T17:52:01.371Z,54.36
2023-05-05T17:54:30.007Z,53.04
2023-05-05T17:56:59.773Z,53.40
2023-05-05T17:59:27.615Z,54.85
2023-05-05T18:01:56.302Z,53.88
2023-05-05T18:04:25.563Z,55.55
2023-05-05T18:06:57.653Z,55.90
2023-05-05T18:09:27.803Z,56.33
2023-05-05T18:11:57.868Z,56.58
2023-05-05T18:14:28.037Z,57.09
2023-05-05T18:16:57.784Z,58.27
2023-05-05T18:19:27.649Z,58.78
2023-05-05T18:22:00.584Z,59.81
2023-05-05T18:24:30.249Z,60.58
2023-05-05T18:27:00.063Z,61.04
2023-05-05T18:29:29.877Z,61.61
2023-05-05T18:31:59.809Z,62.96
2023-05-05T18:34:29.751Z,64.19
2023-05-05T18:37:00.650Z,64.17
2023-05-05T18:39:30.581Z,64.50
2023-05-05T18:42:00.973Z,64.49
2023-05-05T18:44:32.837Z,65.40
2023-05-05T18:47:03.150Z,67.19
2023-05-05T18:49:33.699Z,66.72
2023-05-05T18:52:03.219Z,66.98
2023-05-05T18:54:33.680Z,66.79
2023-05-05T18:57:03.605Z,67.98
2023-05-05T18:59:33.761Z,68.44
2023-05-05T19:02:03.589Z,68.46
2023-05-05T19:04:37.547Z,68.90
2023-05-05T19:07:07.710Z,69.09
2023-05-05T19:09:36.254Z,69.42
2023-05-05T19:12:04.700Z,72.19
2023-05-05T19:14:32.095Z,74.98
2023-05-05T19:17:01.646Z,74.63
2023-05-05T19:19:28.944Z,74.91
2023-05-05T19:21:58.260Z,75.32
2023-05-05T19:24:25.797Z,75.09
2023-05-05T19:26:54.257Z,75.70
2023-05-05T19:29:22.640Z,74.70
2023-05-05T19:31:51.064Z,73.44
2023-05-05T19:34:19.455Z,76.63
2023-05-05T19:36:47.852Z,75.09
2023-05-05T19:39:16.299Z,76.03
2023-05-05T19:41:44.940Z,75.96
2023-05-05T19:44:13.153Z,76.12
2023-05-05T19:46:41.625Z,75.08
2023-05-05T19:49:10.050Z,75.36
2023-05-05T19:51:38.337Z,74.58
2023-05-05T19:54:06.759Z,74.08
2023-05-05T19:56:35.304Z,74.66
2023-05-05T19:59:06.437Z,75.39
2023-05-05T20:01:35.662Z,75.67
2023-05-05T20:04:03.897Z,77.18
2023-05-05T20:06:32.981Z,77.36
2023-05-05T20:09:00.760Z,77.01
2023-05-05T20:11:29.534Z,77.74
2023-05-05T20:13:58.569Z,76.53
2023-05-05T20:16:28.681Z,77.96
2023-05-05T20:18:58.832Z,76.27
2023-05-05T20:21:29.224Z,76.36
2023-05-05T20:23:59.847Z,76.01
2023-05-05T20:26:29.977Z,76.27
2023-05-05T20:29:00.125Z,75.95
2023-05-05T20:31:30.400Z,76.07
2023-05-05T20:34:01.301Z,77.47
2023-05-05T20:36:31.468Z,78.40
2023-05-05T20:39:01.561Z,78.93
2023-05-05T20:41:31.792Z,79.33
2023-05-05T20:44:02.170Z,77.76
2023-05-05T20:46:33.561Z,77.45
2023-05-05T20:49:04.129Z,77.34
2023-05-05T20:51:35.263Z,76.28
2023-05-05T20:54:05.757Z,77.13
2023-05-05T20:56:35.847Z,77.74
2023-05-05T20:59:06.232Z,78.38
2023-05-05T21:01:36.442Z,78.21
2023-05-05T21:04:06.642Z,79.05
2023-05-05T21:06:36.739Z,80.44
2023-05-05T21:09:06.870Z,83.26
2023-05-05T21:11:37.509Z,82.56
2023-05-05T21:14:07.633Z,84.12
2023-05-05T21:16:38.358Z,83.74
2023-05-05T21:19:08.813Z,85.53
2023-05-05T21:21:38.934Z,87.38
2023-05-05T21:24:09.836Z,87.13
2023-05-05T21:26:37.551Z,89.77
2023-05-05T21:29:06.602Z,87.71
2023-05-05T21:31:34.363Z,91.58
2023-05-05T21:34:03.004Z,94.42
2023-05-05T21:36:32.012Z,94.31
2023-05-05T21:39:00.519Z,94.20
2023-05-05T21:41:28.367Z,94.97
2023-05-05T21:43:56.462Z,99.00
2023-05-05T21:46:24.953Z,98.73
2023-05-05T21:48:53.270Z,99.88
2023-05-05T21:51:23.604Z,99.54
2023-05-05T21:53:53.113Z,99.44
2023-05-05T21:56:21.582Z,100.00
2023-05-05T21:58:49.899Z,100.00
2023-05-05T22:01:18.421Z,100.00
2023-05-05T22:03:47.793Z,100.00
2023-05-05T22:06:20.552Z,100.00
2023-05-05T22:08:51.429Z,100.00
2023-05-05T22:11:21.565Z,100.00
2023-05-05T22:13:52.086Z,100.00
2023-05-05T22:16:22.207Z,100.00
2023-05-05T22:18:52.597Z,100.00
2023-05-05T22:21:22.764Z,100.00
2023-05-05T22:23:52.959Z,100.00
2023-05-05T22:26:23.082Z,100.00
2023-05-05T22:28:53.190Z,100.00
2023-05-05T22:31:23.351Z,100.00
2023-05-05T22:33:53.469Z,100.00
2023-05-05T22:36:23.648Z,100.00
2023-05-05T22:38:53.819Z,100.00
2023-05-05T22:41:22.279Z,100.00
2023-05-05T22:43:51.022Z,100.00
2023-05-05T22:46:19.127Z,100.00
2023-05-05T22:48:47.561Z,100.00
2023-05-05T22:51:16.560Z,100.00
2023-05-05T22:53:44.567Z,100.00
2023-05-05T22:56:12.844Z,100.00
2023-05-05T22:58:41.409Z,100.00
2023-05-05T23:01:10.023Z,100.00
2023-05-05T23:03:38.269Z,100.00
2023-05-05T23:06:07.312Z,100.00
2023-05-05T23:08:35.512Z,100.00
2023-05-05T23:11:03.901Z,100.00
2023-05-05T23:13:32.277Z,100.00
2023-05-05T23:16:00.736Z,100.00
2023-05-05T23:18:29.192Z,100.00
2023-05-05T23:20:57.683Z,100.00
2023-05-05T23:23:26.087Z,100.00
2023-05-05T23:25:54.602Z,100.00
2023-05-05T23:28:23.049Z,100.00
2023-05-05T23:30:51.437Z,100.00
2023-05-05T23:33:19.898Z,100.00
2023-05-05T23:35:48.610Z,100.00
2023-05-05T23:38:16.701Z,100.00
2023-05-05T23:40:45.382Z,100.00
2023-05-05T23:43:13.783Z,100.00
2023-05-05T23:45:42.354Z,100.00
2023-05-05T23:48:13.022Z,100.00
2023-05-05T23:50:42.491Z,100.00
2023-05-05T23:53:10.598Z,100.00
2023-05-05T23:55:38.969Z,100.00
2023-05-05T23:58:07.452Z,100.00
